Time;durP1;ratioP1;P1;durP2;ratioP2;P2;SDS_P1;SDS_P2;PMS_P1;PMS_P2;Temp;Humidity;BMP_temperature;BMP_pressure;BME280_temperature;BME280_humidity;BME280_pressure;Samples;Min_cycle;Max_cycle;Signal;HPM_P1;HPM_P2
2023/01/19 00:01:54;;;;;;;;;;;11.80;99.90;;;;;;5072302;28;20339;-69
2023/01/19 00:04:19;;;;;;;;;;;11.80;99.90;;;;;;5072616;28;19904;-68
2023/01/19 00:06:45;;;;;;;;;;;11.90;99.90;;;;;;5072903;28;20019;-70
2023/01/19 00:09:11;;;;;;;;;;;11.80;99.90;;;;;;5072354;28;19905;-69
2023/01/19 00:11:37;;;;;;;;;;;11.90;99.90;;;;;;5072138;28;19938;-69
2023/01/19 00:14:03;;;;;;;;;;;11.80;99.90;;;;;;5071260;28;19905;-69
2023/01/19 00:16:29;;;;;;;;;;;11.90;99.90;;;;;;5072564;28;19908;-69
2023/01/19 00:18:55;;;;;;;;;;;11.90;99.90;;;;;;5072299;28;19904;-68
2023/01/19 00:21:21;;;;;;;;;;;11.80;99.90;;;;;;5070791;28;19935;-68
2023/01/19 00:23:51;;;;;;;;;;;11.90;99.90;;;;;;5075874;28;19904;-68
2023/01/19 00:26:17;;;;;;;;;;;11.90;99.90;;;;;;5083524;28;20353;-68
2023/01/19 00:28:43;;;;;;;;;;;12.00;99.90;;;;;;5076043;28;20022;-68
2023/01/19 00:31:10;;;;;;;;;;;11.90;99.90;;;;;;5091927;28;19911;-69
2023/01/19 00:33:36;;;;;;;;;;;11.90;99.90;;;;;;5073494;28;19995;-69
2023/01/19 00:36:03;;;;;;;;;;;11.80;99.90;;;;;;5092437;28;20006;-68
2023/01/19 00:38:29;;;;;;;;;;;11.70;99.90;;;;;;5072677;28;19991;-69
2023/01/19 00:40:54;;;;;;;;;;;11.70;99.90;;;;;;5071384;28;20027;-69
2023/01/19 00:43:20;;;;;;;;;;;11.60;99.90;;;;;;5088931;28;19904;-67
2023/01/19 00:45:46;;;;;;;;;;;11.60;99.90;;;;;;5084132;28;20006;-68
2023/01/19 00:48:12;;;;;;;;;;;11.70;99.90;;;;;;5071817;28;19941;-68
2023/01/19 00:50:38;;;;;;;;;;;11.60;99.90;;;;;;5071255;28;20003;-68
2023/01/19 00:53:04;;;;;;;;;;;11.60;99.90;;;;;;5071310;28;19939;-68
2023/01/19 00:55:32;;;;;;;;;;;11.70;99.90;;;;;;5071209;28;20315;-69
2023/01/19 00:57:58;;;;;;;;;;;11.70;99.90;;;;;;5071364;28;19912;-68
2023/01/19 01:00:25;;;;;;;;;;;11.70;99.90;;;;;;5071115;28;19920;-68
2023/01/19 01:02:51;;;;;;;;;;;11.80;99.90;;;;;;5071013;28;19908;-69
2023/01/19 01:05:17;;;;;;;;;;;11.80;99.90;;;;;;5071077;28;19904;-68
2023/01/19 01:07:44;;;;;;;;;;;11.80;99.90;;;;;;5058063;28;19999;-68
2023/01/19 01:10:14;;;;;;;;;;;11.70;99.90;;;;;;5050723;28;20367;-69
2023/01/19 01:12:41;;;;;;;;;;;11.70;99.90;;;;;;5050864;28;19947;-68
2023/01/19 01:15:08;;;;;;;;;;;11.60;99.90;;;;;;5033339;28;19908;-69
2023/01/19 01:17:33;;;;;;;;;;;11.70;99.90;;;;;;5050776;28;19962;-70
2023/01/19 01:19:59;;;;;;;;;;;11.60;99.90;;;;;;5032805;28;19908;-68
2023/01/19 01:22:25;;;;;;;;;;;11.60;99.90;;;;;;5050938;28;19925;-70
2023/01/19 01:24:51;;;;;;;;;;;11.60;99.90;;;;;;5050755;28;19912;-68
2023/01/19 01:27:16;;;;;;;;;;;11.70;99.90;;;;;;5051139;28;19951;-67
2023/01/19 01:29:45;;;;;;;;;;;11.70;99.90;;;;;;5050645;28;19952;-68
2023/01/19 01:32:12;;;;;;;;;;;11.60;99.90;;;;;;5051022;28;19909;-69
2023/01/19 01:34:38;;;;;;;;;;;11.60;99.90;;;;;;5050486;28;19948;-68
2023/01/19 01:37:07;;;;;;;;;;;11.70;99.90;;;;;;5050343;28;19913;-70
2023/01/19 01:39:35;;;;;;;;;;;11.70;99.90;;;;;;5050803;28;20010;-68
2023/01/19 01:42:01;;;;;;;;;;;11.70;99.90;;;;;;5050362;28;19967;-68
2023/01/19 01:44:49;;;;;;;;;;;11.70;99.90;;;;;;5050460;28;19995;-69
2023/01/19 01:47:20;;;;;;;;;;;11.70;99.90;;;;;;5070042;28;19916;-69
2023/01/19 01:49:46;;;;;;;;;;;11.70;99.90;;;;;;5070389;28;19987;-68
2023/01/19 01:52:13;;;;;;;;;;;11.80;99.90;;;;;;5070505;28;19908;-69
2023/01/19 01:54:39;;;;;;;;;;;11.80;99.90;;;;;;5070731;28;19905;-68
2023/01/19 01:57:11;;;;;;;;;;;11.70;99.90;;;;;;5070260;28;20378;-68
2023/01/19 01:59:41;;;;;;;;;;;11.80;99.90;;;;;;5070508;28;20347;-68
2023/01/19 02:05:05;;;;;;;;;;;11.70;99.90;;;;;;5070237;28;19915;-69
2023/01/19 02:13:21;;;;;;;;;;;11.50;99.90;;;;;;5050388;28;19927;-68
2023/01/19 02:15:57;;;;;;;;;;;11.60;99.90;;;;;;5032338;28;19909;-69
2023/01/19 02:18:24;;;;;;;;;;;11.50;99.90;;;;;;5032662;28;20307;-68
2023/01/19 02:21:12;;;;;;;;;;;11.50;99.90;;;;;;5050359;28;19912;-68
2023/01/19 02:23:52;;;;;;;;;;;11.40;99.90;;;;;;5049750;28;19912;-67
2023/01/19 02:26:19;;;;;;;;;;;11.50;99.90;;;;;;5032037;28;19970;-68
2023/01/19 02:28:49;;;;;;;;;;;11.40;99.90;;;;;;5050148;28;19924;-69
2023/01/19 02:31:15;;;;;;;;;;;11.40;99.90;;;;;;5031981;28;19956;-68
2023/01/19 02:33:41;;;;;;;;;;;11.40;99.90;;;;;;5050030;28;19944;-68
2023/01/19 02:36:07;;;;;;;;;;;11.40;99.90;;;;;;5031953;28;19912;-69
2023/01/19 02:38:34;;;;;;;;;;;11.40;99.90;;;;;;5073748;28;19957;-68
2023/01/19 02:41:03;;;;;;;;;;;11.40;99.90;;;;;;5073455;28;19919;-68
2023/01/19 02:43:29;;;;;;;;;;;11.40;99.90;;;;;;5073754;28;19911;-69
2023/01/19 02:45:55;;;;;;;;;;;11.30;99.90;;;;;;5073798;28;19912;-69
2023/01/19 02:48:21;;;;;;;;;;;11.30;99.90;;;;;;5074031;28;19905;-69
2023/01/19 02:51:03;;;;;;;;;;;11.30;99.90;;;;;;5074172;28;19911;-69
2023/01/19 02:53:33;;;;;;;;;;;11.30;99.90;;;;;;5073146;28;20026;-68
2023/01/19 02:56:22;;;;;;;;;;;11.30;99.90;;;;;;5073554;28;20214;-67
2023/01/19 02:59:00;;;;;;;;;;;11.30;99.90;;;;;;5073958;28;19905;-68
2023/01/19 03:01:34;;;;;;;;;;;11.30;99.90;;;;;;5073352;28;19989;-67
2023/01/19 03:04:06;;;;;;;;;;;11.30;99.90;;;;;;5073438;28;19904;-69
2023/01/19 03:06:39;;;;;;;;;;;11.30;99.90;;;;;;5055269;28;20063;-67
2023/01/19 03:09:27;;;;;;;;;;;11.30;99.90;;;;;;5073766;28;19912;-68
2023/01/19 03:11:59;;;;;;;;;;;11.20;99.90;;;;;;5073096;28;19992;-68
2023/01/19 03:14:27;;;;;;;;;;;11.20;99.90;;;;;;5073227;28;19912;-68
2023/01/19 03:16:56;;;;;;;;;;;11.20;99.90;;;;;;5073086;28;19912;-68
2023/01/19 03:19:27;;;;;;;;;;;11.20;99.90;;;;;;5072962;28;19908;-67
2023/01/19 03:22:00;;;;;;;;;;;11.20;99.90;;;;;;5073202;28;20114;-67
2023/01/19 03:24:28;;;;;;;;;;;11.20;99.90;;;;;;5073116;28;19924;-68
2023/01/19 03:27:03;;;;;;;;;;;11.30;99.90;;;;;;5072847;28;20015;-63
2023/01/19 03:29:31;;;;;;;;;;;11.30;99.90;;;;;;5054783;28;19978;-69
2023/01/19 03:31:58;;;;;;;;;;;11.30;99.90;;;;;;5073234;28;19905;-68
2023/01/19 03:34:24;;;;;;;;;;;11.40;99.90;;;;;;5072796;28;19911;-69
2023/01/19 03:36:52;;;;;;;;;;;11.30;99.90;;;;;;5072950;28;19927;-70
2023/01/19 03:39:23;;;;;;;;;;;11.30;99.90;;;;;;5073662;28;19939;-68
2023/01/19 03:41:52;;;;;;;;;;;11.30;99.90;;;;;;5073016;28;19912;-68
2023/01/19 03:44:20;;;;;;;;;;;11.30;99.90;;;;;;5073345;28;20372;-68
2023/01/19 03:46:46;;;;;;;;;;;11.30;99.90;;;;;;5072583;28;19985;-68
2023/01/19 03:49:14;;;;;;;;;;;11.30;99.90;;;;;;5054539;28;19909;-68
2023/01/19 03:51:39;;;;;;;;;;;11.30;99.90;;;;;;5073011;28;19904;-70
2023/01/19 03:54:09;;;;;;;;;;;11.30;99.90;;;;;;5072465;28;19904;-69
2023/01/19 03:56:36;;;;;;;;;;;11.30;99.90;;;;;;5072962;28;19915;-69
2023/01/19 03:59:04;;;;;;;;;;;11.30;99.90;;;;;;5073383;28;19904;-69
2023/01/19 04:01:30;;;;;;;;;;;11.30;99.90;;;;;;5072928;28;19916;-68
2023/01/19 04:03:57;;;;;;;;;;;11.40;99.90;;;;;;5072972;28;19904;-70
2023/01/19 04:06:23;;;;;;;;;;;11.30;99.90;;;;;;5073221;28;19966;-68
2023/01/19 04:08:50;;;;;;;;;;;11.40;99.90;;;;;;5073777;28;19908;-68
2023/01/19 04:11:16;;;;;;;;;;;11.40;99.90;;;;;;5072955;28;19926;-69
2023/01/19 04:13:43;;;;;;;;;;;11.40;99.90;;;;;;5072944;28;20018;-69
2023/01/19 04:16:10;;;;;;;;;;;11.30;99.90;;;;;;5054905;28;19911;-70
2023/01/19 04:18:36;;;;;;;;;;;11.30;99.90;;;;;;5073350;28;20336;-69
2023/01/19 04:21:02;;;;;;;;;;;11.30;99.90;;;;;;5072774;28;19915;-68
2023/01/19 04:23:28;;;;;;;;;;;11.20;99.90;;;;;;5073283;28;19931;-68
2023/01/19 04:25:58;;;;;;;;;;;11.20;99.90;;;;;;5072966;28;20360;-68
2023/01/19 04:28:25;;;;;;;;;;;11.30;99.90;;;;;;5073541;28;20003;-68
2023/01/19 04:30:52;;;;;;;;;;;11.30;99.90;;;;;;5073007;28;19905;-68
2023/01/19 04:33:18;;;;;;;;;;;11.20;99.90;;;;;;5073944;28;20014;-68
2023/01/19 04:35:45;;;;;;;;;;;11.30;99.90;;;;;;5073771;28;20323;-68
2023/01/19 04:38:11;;;;;;;;;;;11.30;99.90;;;;;;5073238;28;20264;-68
2023/01/19 04:40:36;;;;;;;;;;;11.30;99.90;;;;;;5055117;28;20309;-68
2023/01/19 04:43:02;;;;;;;;;;;11.20;99.90;;;;;;5073121;28;19920;-67
2023/01/19 04:45:28;;;;;;;;;;;11.30;99.90;;;;;;5073347;28;19944;-68
2023/01/19 04:47:56;;;;;;;;;;;11.30;99.90;;;;;;5073201;28;19949;-68
2023/01/19 04:50:22;;;;;;;;;;;11.30;99.90;;;;;;5073126;28;20372;-69
2023/01/19 04:52:52;;;;;;;;;;;11.30;99.90;;;;;;5073763;28;19911;-66
2023/01/19 04:55:18;;;;;;;;;;;11.30;99.90;;;;;;5069148;28;19908;-69
2023/01/19 04:57:44;;;;;;;;;;;11.30;99.90;;;;;;5065702;28;19916;-69
2023/01/19 05:00:10;;;;;;;;;;;11.30;99.90;;;;;;5072465;28;20014;-69
2023/01/19 05:02:36;;;;;;;;;;;11.30;99.90;;;;;;5072812;28;20214;-67
2023/01/19 05:05:03;;;;;;;;;;;11.30;99.90;;;;;;5073394;28;19958;-64
2023/01/19 05:07:29;;;;;;;;;;;11.40;99.90;;;;;;5073202;28;20256;-68
2023/01/19 05:09:54;;;;;;;;;;;11.30;99.90;;;;;;5071360;28;19904;-68
2023/01/19 05:12:21;;;;;;;;;;;11.30;99.90;;;;;;5072543;28;19999;-68
2023/01/19 05:14:47;;;;;;;;;;;11.30;99.90;;;;;;5071349;28;20256;-68
2023/01/19 05:17:12;;;;;;;;;;;11.20;99.90;;;;;;5072697;28;19915;-68
2023/01/19 05:19:38;;;;;;;;;;;11.30;99.90;;;;;;5073116;28;19955;-67
2023/01/19 05:22:04;;;;;;;;;;;11.20;99.90;;;;;;5073129;28;19919;-68
2023/01/19 05:24:30;;;;;;;;;;;11.20;99.90;;;;;;5073262;28;20264;-68
2023/01/19 05:26:56;;;;;;;;;;;11.20;99.90;;;;;;5073083;28;19904;-68
2023/01/19 05:29:22;;;;;;;;;;;11.20;99.90;;;;;;5073396;28;19958;-69
2023/01/19 05:31:50;;;;;;;;;;;11.20;99.90;;;;;;5072427;28;19960;-68
2023/01/19 05:34:16;;;;;;;;;;;11.30;99.90;;;;;;5072279;28;19920;-67
2023/01/19 05:36:42;;;;;;;;;;;11.30;99.90;;;;;;5072799;28;19904;-66
2023/01/19 05:39:08;;;;;;;;;;;11.30;99.90;;;;;;5054923;28;19958;-68
2023/01/19 05:41:33;;;;;;;;;;;11.30;99.90;;;;;;5072701;28;20359;-68
2023/01/19 05:43:59;;;;;;;;;;;11.30;99.90;;;;;;5073320;28;19904;-68
2023/01/19 05:46:25;;;;;;;;;;;11.30;99.90;;;;;;5072753;28;19923;-69
2023/01/19 05:48:51;;;;;;;;;;;11.30;99.90;;;;;;5054885;28;19908;-69
2023/01/19 05:51:18;;;;;;;;;;;11.20;99.90;;;;;;5071531;28;19995;-69
2023/01/19 05:53:44;;;;;;;;;;;11.30;99.90;;;;;;5073087;28;19911;-68
2023/01/19 05:56:10;;;;;;;;;;;11.20;99.90;;;;;;5072524;28;19904;-70
2023/01/19 05:58:38;;;;;;;;;;;11.30;99.90;;;;;;5072625;28;20372;-68
2023/01/19 06:01:07;;;;;;;;;;;11.30;99.90;;;;;;5072382;28;20413;-67
2023/01/19 06:03:33;;;;;;;;;;;11.30;99.90;;;;;;5072235;28;20009;-71
2023/01/19 06:05:59;;;;;;;;;;;11.20;99.90;;;;;;5072844;28;19905;-68
2023/01/19 06:08:25;;;;;;;;;;;11.30;99.90;;;;;;5071212;28;20352;-73
2023/01/19 06:10:51;;;;;;;;;;;11.50;99.90;;;;;;5070958;28;19904;-69
2023/01/19 06:13:17;;;;;;;;;;;11.70;99.90;;;;;;5076132;28;19904;-69
2023/01/19 06:15:44;;;;;;;;;;;11.80;99.90;;;;;;5076445;28;20495;-69
2023/01/19 06:18:10;;;;;;;;;;;11.80;99.90;;;;;;5077288;28;20291;-70
2023/01/19 06:20:36;;;;;;;;;;;11.70;99.90;;;;;;5081749;28;19904;-71
2023/01/19 06:23:03;;;;;;;;;;;11.60;99.90;;;;;;5088776;28;19915;-70
2023/01/19 06:25:29;;;;;;;;;;;11.60;99.90;;;;;;5075311;28;19913;-66
2023/01/19 06:27:54;;;;;;;;;;;11.60;99.90;;;;;;5056218;28;20264;-72
2023/01/19 06:30:20;;;;;;;;;;;11.70;99.90;;;;;;5055745;28;19916;-70
2023/01/19 06:32:46;;;;;;;;;;;11.70;99.90;;;;;;5056329;28;20003;-72
2023/01/19 06:35:12;;;;;;;;;;;11.70;99.90;;;;;;5055830;28;20237;-71
2023/01/19 06:37:39;;;;;;;;;;;11.80;99.90;;;;;;5049834;28;20336;-69
2023/01/19 06:40:09;;;;;;;;;;;11.80;99.90;;;;;;5076084;28;19904;-71
2023/01/19 06:42:35;;;;;;;;;;;11.90;99.90;;;;;;5075243;28;19913;-70
2023/01/19 06:45:02;;;;;;;;;;;11.90;99.90;;;;;;5072097;28;19911;-68
2023/01/19 06:47:28;;;;;;;;;;;11.90;99.90;;;;;;5075772;28;19913;-69
2023/01/19 06:49:55;;;;;;;;;;;11.90;99.90;;;;;;5075480;28;19919;-68
2023/01/19 06:52:21;;;;;;;;;;;11.90;99.90;;;;;;5056658;28;20240;-69
2023/01/19 06:54:47;;;;;;;;;;;11.90;99.90;;;;;;5074868;28;19923;-69
2023/01/19 06:57:13;;;;;;;;;;;12.00;99.90;;;;;;5074541;28;20347;-70
2023/01/19 06:59:39;;;;;;;;;;;12.10;99.90;;;;;;5074740;28;19908;-71
2023/01/19 07:02:05;;;;;;;;;;;12.10;99.90;;;;;;5073047;28;19944;-70
2023/01/19 07:04:32;;;;;;;;;;;12.10;99.90;;;;;;5074118;28;19995;-71
2023/01/19 07:06:58;;;;;;;;;;;12.20;99.90;;;;;;5073024;28;20041;-71
2023/01/19 07:09:24;;;;;;;;;;;12.30;99.90;;;;;;5074886;28;20356;-71
2023/01/19 07:11:50;;;;;;;;;;;12.50;99.90;;;;;;5074139;28;19904;-71
2023/01/19 07:14:16;;;;;;;;;;;12.60;99.90;;;;;;5074177;28;19904;-71
2023/01/19 07:16:42;;;;;;;;;;;12.60;99.90;;;;;;5074069;28;20032;-66
2023/01/19 07:19:13;;;;;;;;;;;12.70;99.90;;;;;;5074951;28;19987;-70
2023/01/19 07:21:38;;;;;;;;;;;12.70;99.90;;;;;;5080538;28;20347;-69
2023/01/19 07:24:04;;;;;;;;;;;12.60;99.90;;;;;;5094943;28;19927;-70
2023/01/19 07:26:30;;;;;;;;;;;12.60;99.90;;;;;;5094559;28;20381;-71
2023/01/19 07:28:56;;;;;;;;;;;12.50;99.90;;;;;;5094778;28;20031;-69
2023/01/19 07:31:23;;;;;;;;;;;12.20;99.90;;;;;;5095509;28;19911;-72
2023/01/19 07:33:49;;;;;;;;;;;12.00;99.90;;;;;;5094244;28;19911;-67
2023/01/19 07:36:16;;;;;;;;;;;11.90;99.90;;;;;;5093471;28;19924;-70
2023/01/19 07:38:42;;;;;;;;;;;11.70;99.90;;;;;;5074265;28;20390;-67
2023/01/19 07:41:08;;;;;;;;;;;11.60;99.90;;;;;;5074129;28;19995;-70
2023/01/19 07:43:34;;;;;;;;;;;11.50;99.90;;;;;;5074066;28;19912;-72
2023/01/19 07:46:02;;;;;;;;;;;11.40;99.90;;;;;;5073826;28;19962;-71
2023/01/19 07:48:28;;;;;;;;;;;11.40;99.90;;;;;;5074873;28;19916;-73
2023/01/19 07:50:58;;;;;;;;;;;11.80;99.90;;;;;;5072837;28;19908;-70
2023/01/19 07:53:26;;;;;;;;;;;12.20;99.90;;;;;;5074861;28;19942;-71
2023/01/19 07:55:55;;;;;;;;;;;12.80;99.90;;;;;;5074329;28;19935;-70
2023/01/19 07:58:22;;;;;;;;;;;13.00;99.90;;;;;;5055940;28;19905;-72
2023/01/19 08:00:48;;;;;;;;;;;13.10;99.90;;;;;;5074249;28;19904;-72
2023/01/19 08:03:14;;;;;;;;;;;13.00;99.90;;;;;;5073928;28;19923;-71
2023/01/19 08:05:39;;;;;;;;;;;12.90;99.90;;;;;;5074095;28;20335;-71
2023/01/19 08:08:05;;;;;;;;;;;13.00;99.90;;;;;;5073895;28;19991;-71
2023/01/19 08:10:33;;;;;;;;;;;13.00;99.90;;;;;;5074062;28;19911;-71
2023/01/19 08:12:59;;;;;;;;;;;13.10;99.90;;;;;;5072603;28;19985;-72
2023/01/19 08:15:26;;;;;;;;;;;13.30;99.90;;;;;;5073211;28;19908;-71
2023/01/19 08:17:59;;;;;;;;;;;13.50;99.90;;;;;;5072842;28;20264;-71
2023/01/19 08:20:26;;;;;;;;;;;13.70;99.90;;;;;;5072366;28;19957;-72
2023/01/19 08:22:58;;;;;;;;;;;13.80;99.90;;;;;;5072732;28;20305;-72
2023/01/19 08:25:25;;;;;;;;;;;13.90;99.90;;;;;;5072974;28;19908;-71
2023/01/19 08:27:55;;;;;;;;;;;14.00;99.90;;;;;;5073021;28;19912;-72
2023/01/19 08:30:22;;;;;;;;;;;14.20;99.90;;;;;;5073217;28;19904;-72
2023/01/19 08:32:49;;;;;;;;;;;14.50;99.90;;;;;;5073104;28;19904;-71
2023/01/19 08:35:15;;;;;;;;;;;14.70;99.90;;;;;;5072700;28;19905;-71
2023/01/19 08:37:40;;;;;;;;;;;15.10;99.90;;;;;;5073075;28;19995;-71
2023/01/19 08:40:07;;;;;;;;;;;15.40;99.90;;;;;;5073238;28;19904;-70
2023/01/19 08:42:33;;;;;;;;;;;15.70;99.90;;;;;;5071481;28;19950;-70
2023/01/19 08:44:59;;;;;;;;;;;15.50;99.90;;;;;;5073407;28;19904;-70
2023/01/19 08:47:24;;;;;;;;;;;15.70;99.90;;;;;;5072254;28;19938;-70
2023/01/19 08:49:50;;;;;;;;;;;15.30;99.90;;;;;;5072133;28;19965;-70
2023/01/19 08:52:16;;;;;;;;;;;15.20;99.90;;;;;;5072107;28;19983;-71
2023/01/19 08:54:42;;;;;;;;;;;15.50;99.90;;;;;;5072043;28;20367;-68
2023/01/19 08:57:09;;;;;;;;;;;15.80;99.90;;;;;;5071247;28;19958;-68
2023/01/19 08:59:37;;;;;;;;;;;15.70;99.90;;;;;;5070149;28;20364;-69
2023/01/19 09:02:03;;;;;;;;;;;15.40;99.90;;;;;;5072211;28;19912;-70
2023/01/19 09:04:29;;;;;;;;;;;15.30;99.90;;;;;;5071948;28;20244;-69
2023/01/19 09:06:55;;;;;;;;;;;15.10;99.90;;;;;;5071754;28;19915;-70
2023/01/19 09:09:21;;;;;;;;;;;15.20;99.90;;;;;;5053888;28;19954;-71
2023/01/19 09:11:47;;;;;;;;;;;15.20;99.90;;;;;;5071787;28;19973;-70
2023/01/19 09:14:13;;;;;;;;;;;15.20;99.90;;;;;;5071725;28;20124;-72
2023/01/19 09:16:39;;;;;;;;;;;15.10;99.90;;;;;;5071653;28;19904;-71
2023/01/19 09:19:07;;;;;;;;;;;15.00;99.90;;;;;;5073120;28;19926;-70
2023/01/19 09:21:33;;;;;;;;;;;14.90;99.90;;;;;;5072475;28;19908;-72
2023/01/19 09:23:59;;;;;;;;;;;14.60;99.90;;;;;;5072617;28;19975;-70
2023/01/19 09:26:25;;;;;;;;;;;14.60;99.90;;;;;;5072505;28;19911;-71
2023/01/19 09:28:51;;;;;;;;;;;14.60;99.90;;;;;;5072305;28;20324;-71
2023/01/19 09:31:17;;;;;;;;;;;14.70;99.90;;;;;;5072589;28;19905;-70
2023/01/19 09:33:44;;;;;;;;;;;14.90;99.90;;;;;;5072603;28;19909;-70
2023/01/19 09:36:10;;;;;;;;;;;14.70;99.90;;;;;;5072569;28;19932;-70
2023/01/19 09:38:35;;;;;;;;;;;14.60;99.90;;;;;;5054041;28;19911;-68
2023/01/19 09:41:03;;;;;;;;;;;14.50;99.90;;;;;;5071801;28;19904;-71
2023/01/19 09:43:34;;;;;;;;;;;14.50;99.90;;;;;;5071915;28;19915;-70
2023/01/19 09:46:01;;;;;;;;;;;14.50;99.90;;;;;;5071809;28;19912;-71
2023/01/19 09:48:45;;;;;;;;;;;14.50;99.90;;;;;;5071748;28;19939;-71
2023/01/19 09:51:32;;;;;;;;;;;14.50;99.90;;;;;;5071885;28;19904;-70
2023/01/19 09:54:11;;;;;;;;;;;14.50;99.90;;;;;;5071587;28;19908;-70
2023/01/19 09:56:38;;;;;;;;;;;14.40;99.90;;;;;;5071688;28;19948;-70
2023/01/19 09:59:29;;;;;;;;;;;14.50;99.90;;;;;;5071526;28;19999;-68
2023/01/19 10:02:01;;;;;;;;;;;14.60;99.90;;;;;;5068907;28;20328;-69
2023/01/19 10:04:33;;;;;;;;;;;14.70;99.90;;;;;;5053198;28;19954;-70
2023/01/19 10:07:10;;;;;;;;;;;14.70;99.90;;;;;;5071623;28;20028;-69
2023/01/19 10:09:46;;;;;;;;;;;14.40;99.90;;;;;;5071836;28;19911;-69
2023/01/19 10:12:30;;;;;;;;;;;14.20;99.90;;;;;;5071100;28;19947;-71
2023/01/19 10:15:02;;;;;;;;;;;13.70;99.90;;;;;;5071392;28;19912;-69
2023/01/19 10:17:37;;;;;;;;;;;13.50;99.90;;;;;;5071002;28;19905;-72
2023/01/19 10:20:04;;;;;;;;;;;13.40;99.90;;;;;;5053559;28;19904;-70
2023/01/19 10:22:33;;;;;;;;;;;13.50;99.90;;;;;;5053201;28;20296;-70
2023/01/19 10:25:04;;;;;;;;;;;13.50;99.90;;;;;;5071485;28;19905;-72
2023/01/19 10:27:32;;;;;;;;;;;13.60;99.90;;;;;;5071294;28;20011;-70
2023/01/19 10:29:59;;;;;;;;;;;13.50;99.90;;;;;;5071402;28;19966;-70
2023/01/19 10:32:34;;;;;;;;;;;13.60;99.90;;;;;;5071938;28;19954;-70
2023/01/19 10:35:06;;;;;;;;;;;13.70;99.90;;;;;;5053454;28;19905;-69
2023/01/19 10:37:39;;;;;;;;;;;14.00;99.90;;;;;;5060338;28;20418;-70
2023/01/19 10:40:07;;;;;;;;;;;13.70;99.90;;;;;;5050920;28;19911;-69
2023/01/19 10:42:34;;;;;;;;;;;13.80;99.90;;;;;;5051320;28;19928;-70
2023/01/19 10:44:59;;;;;;;;;;;13.60;99.90;;;;;;5051546;28;19999;-70
2023/01/19 10:47:35;;;;;;;;;;;13.80;99.90;;;;;;5069835;28;20003;-70
2023/01/19 10:50:22;;;;;;;;;;;13.80;99.90;;;;;;5071996;28;19905;-72
2023/01/19 10:52:53;;;;;;;;;;;14.20;99.90;;;;;;5072101;28;20277;-70
2023/01/19 10:55:27;;;;;;;;;;;14.60;99.90;;;;;;5053560;28;19905;-69
2023/01/19 10:57:53;;;;;;;;;;;14.90;99.90;;;;;;5054853;28;19995;-69
2023/01/19 11:00:38;;;;;;;;;;;14.60;99.90;;;;;;5075618;28;19922;-71
2023/01/19 11:03:21;;;;;;;;;;;14.40;99.90;;;;;;5080918;28;19916;-68
2023/01/19 11:05:46;;;;;;;;;;;14.60;99.90;;;;;;5080113;28;19904;-70
2023/01/19 11:08:22;;;;;;;;;;;14.60;99.90;;;;;;5078122;28;19914;-67
2023/01/19 11:10:53;;;;;;;;;;;14.60;99.90;;;;;;5056827;28;20352;-70
2023/01/19 11:13:19;;;;;;;;;;;14.70;99.90;;;;;;5074742;28;19911;-69
2023/01/19 11:15:52;;;;;;;;;;;14.60;99.90;;;;;;5056287;28;20003;-72
2023/01/19 11:18:23;;;;;;;;;;;14.30;99.90;;;;;;5075069;28;19948;-70
2023/01/19 11:20:50;;;;;;;;;;;14.10;99.90;;;;;;5075025;28;19904;-69
2023/01/19 11:23:15;;;;;;;;;;;13.80;99.90;;;;;;5074887;28;19999;-71
2023/01/19 11:25:44;;;;;;;;;;;13.80;99.90;;;;;;5075216;28;19951;-69
2023/01/19 11:28:27;;;;;;;;;;;13.90;99.90;;;;;;5074717;28;20323;-72
2023/01/19 11:30:54;;;;;;;;;;;13.80;99.90;;;;;;5074930;28;19984;-72
2023/01/19 11:33:24;;;;;;;;;;;13.80;99.90;;;;;;5074451;28;19904;-70
2023/01/19 11:36:00;;;;;;;;;;;14.00;99.90;;;;;;5079412;28;19911;-72
2023/01/19 11:38:26;;;;;;;;;;;14.40;99.90;;;;;;5095028;28;19908;-71
2023/01/19 11:40:56;;;;;;;;;;;14.60;99.90;;;;;;5094840;28;19904;-72
2023/01/19 11:43:22;;;;;;;;;;;14.50;99.90;;;;;;5094760;28;19968;-72
2023/01/19 11:45:48;;;;;;;;;;;14.60;99.90;;;;;;5080999;28;20275;-71
2023/01/19 11:48:35;;;;;;;;;;;14.70;99.90;;;;;;5075195;28;20348;-71
2023/01/19 11:51:03;;;;;;;;;;;14.40;99.90;;;;;;5074151;28;20026;-71
2023/01/19 11:53:34;;;;;;;;;;;14.20;99.90;;;;;;5073892;28;19911;-72
2023/01/19 11:56:06;;;;;;;;;;;14.20;99.90;;;;;;5073965;28;19939;-71
2023/01/19 11:58:36;;;;;;;;;;;14.20;99.90;;;;;;5073676;28;19912;-71
2023/01/19 12:01:19;;;;;;;;;;;14.20;99.90;;;;;;5074220;28;19995;-72
2023/01/19 12:03:47;;;;;;;;;;;14.10;99.90;;;;;;5055092;28;20248;-72
2023/01/19 12:06:19;;;;;;;;;;;14.10;99.90;;;;;;5073350;28;19904;-72
2023/01/19 12:08:53;;;;;;;;;;;14.10;99.90;;;;;;5072525;28;19914;-71
2023/01/19 12:11:21;;;;;;;;;;;14.10;99.90;;;;;;5073199;28;20264;-72
2023/01/19 12:13:48;;;;;;;;;;;14.20;99.90;;;;;;5073230;28;19991;-73
2023/01/19 12:16:21;;;;;;;;;;;14.20;99.90;;;;;;5072711;28;19984;-71
2023/01/19 12:18:53;;;;;;;;;;;14.10;99.90;;;;;;5073052;28;19981;-72
2023/01/19 12:21:20;;;;;;;;;;;13.90;99.90;;;;;;5073299;28;20008;-71
2023/01/19 12:23:49;;;;;;;;;;;14.00;99.90;;;;;;5073363;28;19912;-71
2023/01/19 12:26:15;;;;;;;;;;;14.00;99.90;;;;;;5073786;28;19943;-71
2023/01/19 12:28:42;;;;;;;;;;;14.10;99.90;;;;;;5073383;28;19904;-70
2023/01/19 12:31:08;;;;;;;;;;;14.30;99.90;;;;;;5073126;28;20335;-72
2023/01/19 12:33:36;;;;;;;;;;;14.30;99.90;;;;;;5073277;28;20372;-72
2023/01/19 12:36:11;;;;;;;;;;;14.20;99.90;;;;;;5073264;28;19905;-72
2023/01/19 12:38:43;;;;;;;;;;;14.00;99.90;;;;;;5073175;28;19951;-71
2023/01/19 12:41:27;;;;;;;;;;;14.00;99.90;;;;;;5073376;28;20387;-71
2023/01/19 12:44:11;;;;;;;;;;;14.00;99.90;;;;;;5073496;28;20271;-71
2023/01/19 12:46:38;;;;;;;;;;;14.20;99.90;;;;;;5072948;28;19970;-72
2023/01/19 12:49:09;;;;;;;;;;;14.20;99.90;;;;;;5073431;28;19930;-72
2023/01/19 12:51:35;;;;;;;;;;;14.30;99.90;;;;;;5072925;28;19905;-71
2023/01/19 12:54:03;;;;;;;;;;;14.40;99.90;;;;;;5073061;28;19912;-72
2023/01/19 12:56:32;;;;;;;;;;;14.30;99.90;;;;;;5073110;28;19905;-72
2023/01/19 12:58:59;;;;;;;;;;;14.00;99.90;;;;;;5072780;28;19905;-73
2023/01/19 13:01:25;;;;;;;;;;;13.40;99.90;;;;;;5073129;28;20336;-72
2023/01/19 13:04:05;;;;;;;;;;;13.50;99.90;;;;;;5072845;28;20019;-73
2023/01/19 13:06:47;;;;;;;;;;;13.70;99.90;;;;;;5053422;28;19957;-74
2023/01/19 13:09:28;;;;;;;;;;;13.60;99.90;;;;;;5072626;28;19904;-73
2023/01/19 13:12:18;;;;;;;;;;;13.60;99.90;;;;;;5071485;28;19909;-72
2023/01/19 13:14:43;;;;;;;;;;;13.70;99.90;;;;;;5073152;28;19905;-73
2023/01/19 13:17:33;;;;;;;;;;;13.90;99.90;;;;;;5073628;28;20382;-73
2023/01/19 13:20:17;;;;;;;;;;;14.20;99.90;;;;;;5062509;28;19946;-72
2023/01/19 13:22:49;;;;;;;;;;;14.10;99.90;;;;;;5071684;28;19912;-72
2023/01/19 13:25:41;;;;;;;;;;;13.90;99.90;;;;;;5073160;28;19940;-74
2023/01/19 13:28:08;;;;;;;;;;;13.80;99.90;;;;;;5069976;28;20367;-72
2023/01/19 13:30:34;;;;;;;;;;;13.70;99.90;;;;;;5072826;28;19931;-73
2023/01/19 13:33:05;;;;;;;;;;;13.70;99.90;;;;;;5072734;28;19961;-73
2023/01/19 13:35:31;;;;;;;;;;;13.90;99.90;;;;;;5073492;28;19952;-72
2023/01/19 13:37:58;;;;;;;;;;;13.80;99.90;;;;;;5072883;28;19927;-72
2023/01/19 13:40:29;;;;;;;;;;;13.80;99.90;;;;;;5073378;28;19954;-73
2023/01/19 13:42:55;;;;;;;;;;;14.00;99.90;;;;;;5073070;28;19920;-73
2023/01/19 13:45:35;;;;;;;;;;;13.80;99.90;;;;;;5054501;28;19995;-73
2023/01/19 13:48:07;;;;;;;;;;;13.80;99.90;;;;;;5073096;28;20003;-73
2023/01/19 13:50:36;;;;;;;;;;;13.50;99.90;;;;;;5080238;28;19927;-73
2023/01/19 13:53:04;;;;;;;;;;;13.30;99.90;;;;;;5072349;28;20333;-72
2023/01/19 13:55:30;;;;;;;;;;;13.10;99.90;;;;;;5072713;28;19912;-73
2023/01/19 13:57:56;;;;;;;;;;;13.00;99.90;;;;;;5072258;28;19904;-71
2023/01/19 14:00:24;;;;;;;;;;;12.90;99.90;;;;;;5072419;28;19905;-68
2023/01/19 14:02:52;;;;;;;;;;;12.80;99.90;;;;;;5072215;28;19913;-73
2023/01/19 14:05:22;;;;;;;;;;;12.70;99.90;;;;;;5072076;28;19905;-74
2023/01/19 14:07:59;;;;;;;;;;;12.60;99.90;;;;;;5072334;28;19905;-73
2023/01/19 14:10:25;;;;;;;;;;;12.20;99.90;;;;;;5072516;28;19904;-73
2023/01/19 14:12:58;;;;;;;;;;;11.80;99.90;;;;;;5072455;28;20005;-73
2023/01/19 14:15:24;;;;;;;;;;;11.50;99.90;;;;;;5072740;28;20041;-73
2023/01/19 14:18:08;;;;;;;;;;;11.40;99.90;;;;;;5072477;28;19951;-74
2023/01/19 14:20:37;;;;;;;;;;;11.10;99.90;;;;;;5072544;28;20363;-75
2023/01/19 14:23:03;;;;;;;;;;;11.00;99.90;;;;;;5072428;28;19919;-73
2023/01/19 14:25:33;;;;;;;;;;;10.80;99.90;;;;;;5072649;28;19911;-74
2023/01/19 14:28:17;;;;;;;;;;;10.70;99.90;;;;;;5072429;28;19905;-73
2023/01/19 14:31:01;;;;;;;;;;;10.60;99.90;;;;;;5072489;28;20357;-73
2023/01/19 14:33:33;;;;;;;;;;;10.70;99.90;;;;;;5056643;28;19915;-73
2023/01/19 14:36:28;;;;;;;;;;;10.60;99.90;;;;;;5076485;28;19958;-73